• Join FlightAware (Why Join?)
  • Login
  • US Flag 
02:30PM EDT


 

Airport Tracker/Info


-or-


 

Live Flight TrackerFlight Track Log ✈ UCA4838 ✈ 13-Oct-2013 ✈ KROC - KEWR

Flight Track Log - Related Links

Times and Time Zones

All times are in EDT time to prevent confusion due to time zone crossing. See the UCA4838 flight status page for this flight to view local times or setup timezone preferences in your user account.

Time Position Orientation Groundspeed Altitude Reporting Facility
EDT Latitude Longitude Course Direction KTS MPH feet Rate Location/Type
10:01AM 43.1067 -77.6875 179° South 125 144 900  Level Cleveland Center
10:02AM 43.0708 -77.6867 179° South 156 180 2,200 1,080 Climbing Cleveland Center
10:03AM 43.0531 -77.6494 123° Southeast 181 208 2,900 1,200 Climbing Cleveland Center
10:03AM 43.0486 -77.6344 112° Southeast 186 214 3,300 1,320 Climbing Cleveland Center
10:04AM 43.0311 -77.5856 116° Southeast 185 213 4,300 1,260 Climbing Cleveland Center
10:05AM 43.0092 -77.5189 114° Southeast 189 217 5,700 1,260 Climbing Cleveland Center
10:06AM 42.9886 -77.4539 113° Southeast 188 216 6,900 1,080 Climbing Cleveland Center
10:07AM 42.9636 -77.3875 117° Southeast 193 222 8,000 960 Climbing Cleveland Center
10:08AM 42.9397 -77.3189 115° Southeast 199 229 8,900 960 Climbing Cleveland Center
10:09AM 42.9144 -77.2500 117° Southeast 202 232 10,000 960 Climbing Cleveland Center
10:10AM 42.8897 -77.1814 116° Southeast 202 232 10,900 960 Climbing Cleveland Center
10:11AM 42.8600 -77.0958 115° Southeast 207 238 12,000 960 Climbing Cleveland Center
10:12AM 42.8350 -77.0264 116° Southeast 206 237 13,000 480 Climbing Cleveland Center
10:13AM 42.8125 -76.9694 118° Southeast 203 234 13,000  Level Boston Center
10:14AM 42.7742 -76.8817 121° Southeast 222 255 13,000  Level Boston Center
10:15AM 42.7378 -76.7997 121° Southeast 244 281 13,000  Level Boston Center
10:16AM 42.6992 -76.7181 123° Southeast 249 287 13,000  Level Boston Center
10:17AM 42.6628 -76.6336 120° Southeast 254 292 13,000  Level Boston Center
10:18AM 42.6242 -76.5464 121° Southeast 259 298 13,000  Level Boston Center
10:19AM 42.5878 -76.4619 120° Southeast 264 304 13,000  Level Boston Center
10:20AM 42.5469 -76.3747 122° Southeast 264 304 13,000  Level Boston Center
10:21AM 42.5100 -76.2936 122° Southeast 264 304 13,100  Climbing Boston Center
10:22AM 42.4711 -76.2094 122° Southeast 264 304 13,100  Level Boston Center
10:23AM 42.4383 -76.1286 119° Southeast 258 297 13,100  Level Boston Center
10:24AM 42.3975 -76.0392 122° Southeast 263 303 13,100  Level Boston Center
10:25AM 42.3622 -75.9667 123° Southeast 249 287 13,100  Level Boston Center
10:26AM 42.3233 -75.8803 121° Southeast 260 299 13,100  Level Boston Center
10:27AM 42.2881 -75.8053 122° Southeast 254 292 13,100  Level Boston Center
10:28AM 42.2547 -75.7278 120° Southeast 254 292 13,100  Level Boston Center
10:29AM 42.2175 -75.6444 121° Southeast 254 292 13,100  Level Boston Center
10:30AM 42.1822 -75.5672 122° Southeast 259 298 13,100  Level Boston Center
10:31AM 42.1447 -75.4897 123° Southeast 254 292 13,100  Level Boston Center
10:32AM 42.1072 -75.4094 122° Southeast 254 292 13,100  Level Boston Center
10:33AM 42.0717 -75.3322 122° Southeast 254 292 13,100 -120 Level Boston Center
10:34AM 42.0406 -75.2469 116° Southeast 254 292 12,900 -60 Descending Boston Center
10:35AM 42.0072 -75.1617 118° Southeast 254 292 13,000  Climbing Boston Center
10:36AM 41.9736 -75.0792 119° Southeast 254 292 13,000  Level Boston Center
10:37AM 41.9383 -74.9856 117° Southeast 254 292 13,000  Level Boston Center
10:38AM 41.9108 -74.9119 117° Southeast 249 287 13,000  Level Boston Center
10:39AM 41.8731 -74.8183 118° Southeast 249 287 13,000 -120 Level Boston Center
10:40AM 41.8369 -74.7528 126° Southeast 249 287 12,800 -900 Descending Boston Center
10:41AM 41.7542 -74.7303 169° South 253 291 11,200 -1,500 Descending Boston Center
10:42AM 41.6875 -74.7197 173° South 280 322 9,800 -1,500 Descending Boston Center
10:43AM 41.6047 -74.7000 170° South 280 322 8,200 -1,500 Descending Boston Center
10:44AM 41.5361 -74.6864 172° South 280 322 6,800 -1,140 Descending Boston Center
10:45AM 41.4594 -74.6672 169° South 267 307 6,000 -420 Descending Boston Center
10:46AM 41.3500 -74.6500 173° South 252 290 5,900 -240 Descending New York TRACON
10:47AM 41.2833 -74.6333 169° South 252 290 5,500 -840 Descending New York TRACON
10:48AM 41.2167 -74.6000 159° South 253 291 4,200 -840 Descending New York TRACON
10:49AM 41.1500 -74.5833 169° South 236 272 4,000 -120 Descending New York TRACON
10:50AM 41.0833 -74.5667 169° South 231 266 4,000 -300 Level New York TRACON
10:51AM 41.0333 -74.5500 166° South 234 269 3,400 -540 Descending New York TRACON
10:52AM 40.9667 -74.5333 169° South 242 278 3,000 -240 Descending New York TRACON
10:53AM 40.9000 -74.5167 169° South 237 273 3,000  Level New York TRACON
10:54AM 40.8500 -74.5000 166° South 236 272 3,000  Level New York TRACON
10:55AM 40.7833 -74.4833 169° South 234 269 3,000  Level New York TRACON
10:56AM 40.7333 -74.4333 143° Southeast 216 249 3,000 -540 Level New York TRACON
10:57AM 40.7167 -74.3833 114° Southeast 188 216 2,000 -540 Descending New York TRACON
10:58AM 40.7167 -74.3167 90° East 173 199 2,000 -480 Level New York TRACON
10:59AM 40.7000 -74.2667 114° Southeast 150 173 1,200 -840 Descending New York TRACON